sensor_id;sensor_type;location;lat;lon;timestamp;pressure;altitude;pressure_sealevel;temperature;humidity
78888;BME280;68276;49.326;8.690;2023-05-29T00:00:32;100299.25;;;18.64;42.74
78888;BME280;68276;49.326;8.690;2023-05-29T00:02:58;100294.75;;;18.58;42.81
78888;BME280;68276;49.326;8.690;2023-05-29T00:05:24;100303.16;;;18.57;42.91
78888;BME280;68276;49.326;8.690;2023-05-29T00:07:49;100300.56;;;18.50;43.12
78888;BME280;68276;49.326;8.690;2023-05-29T00:10:16;100303.88;;;18.52;43.12
78888;BME280;68276;49.326;8.690;2023-05-29T00:12:41;100297.84;;;18.50;42.94
78888;BME280;68276;49.326;8.690;2023-05-29T00:15:08;100298.31;;;18.47;42.99
78888;BME280;68276;49.326;8.690;2023-05-29T00:17:35;100288.50;;;18.46;43.16
78888;BME280;68276;49.326;8.690;2023-05-29T00:20:02;100286.84;;;18.45;43.08
78888;BME280;68276;49.326;8.690;2023-05-29T00:22:34;100282.81;;;18.48;42.81
78888;BME280;68276;49.326;8.690;2023-05-29T00:25:05;100286.00;;;18.45;43.03
78888;BME280;68276;49.326;8.690;2023-05-29T00:27:31;100285.03;;;18.39;43.07
78888;BME280;68276;49.326;8.690;2023-05-29T00:29:58;100278.78;;;18.39;42.87
78888;BME280;68276;49.326;8.690;2023-05-29T00:32:23;100279.03;;;18.37;42.88
78888;BME280;68276;49.326;8.690;2023-05-29T00:34:49;100277.09;;;18.38;42.99
78888;BME280;68276;49.326;8.690;2023-05-29T00:37:15;100278.53;;;18.28;43.21
78888;BME280;68276;49.326;8.690;2023-05-29T00:39:40;100276.03;;;18.27;43.28
78888;BME280;68276;49.326;8.690;2023-05-29T00:42:06;100272.28;;;18.28;42.89
78888;BME280;68276;49.326;8.690;2023-05-29T00:44:31;100269.56;;;18.28;42.96
78888;BME280;68276;49.326;8.690;2023-05-29T00:46:57;100272.28;;;18.28;43.06
78888;BME280;68276;49.326;8.690;2023-05-29T00:49:23;100270.38;;;18.28;42.70
78888;BME280;68276;49.326;8.690;2023-05-29T00:51:51;100266.00;;;18.27;43.04
78888;BME280;68276;49.326;8.690;2023-05-29T00:54:21;100267.28;;;18.25;42.89
78888;BME280;68276;49.326;8.690;2023-05-29T00:56:48;100271.56;;;18.21;43.03
78888;BME280;68276;49.326;8.690;2023-05-29T00:59:14;100265.88;;;18.22;42.91
78888;BME280;68276;49.326;8.690;2023-05-29T01:01:41;100265.06;;;18.22;42.88
78888;BME280;68276;49.326;8.690;2023-05-29T01:04:09;100273.22;;;18.22;42.63
78888;BME280;68276;49.326;8.690;2023-05-29T01:06:37;100263.88;;;18.18;42.81
78888;BME280;68276;49.326;8.690;2023-05-29T01:09:02;100264.94;;;18.17;42.80
78888;BME280;68276;49.326;8.690;2023-05-29T01:14:17;100261.72;;;18.20;42.68
78888;BME280;68276;49.326;8.690;2023-05-29T01:17:05;100260.56;;;18.16;42.75
78888;BME280;68276;49.326;8.690;2023-05-29T01:19:59;100258.91;;;18.15;42.72
78888;BME280;68276;49.326;8.690;2023-05-29T01:26:11;100252.78;;;18.19;42.46
78888;BME280;68276;49.326;8.690;2023-05-29T01:28:47;100258.09;;;18.14;42.93
78888;BME280;68276;49.326;8.690;2023-05-29T01:31:17;100252.50;;;18.09;42.71
78888;BME280;68276;49.326;8.690;2023-05-29T01:33:52;100242.47;;;18.10;42.49
78888;BME280;68276;49.326;8.690;2023-05-29T01:36:19;100240.34;;;18.12;42.61
78888;BME280;68276;49.326;8.690;2023-05-29T01:38:45;100242.47;;;18.10;42.89
78888;BME280;68276;49.326;8.690;2023-05-29T01:41:10;100243.06;;;18.12;42.61
78888;BME280;68276;49.326;8.690;2023-05-29T01:43:37;100252.88;;;18.13;42.58
78888;BME280;68276;49.326;8.690;2023-05-29T01:46:02;100246.88;;;18.11;42.87
78888;BME280;68276;49.326;8.690;2023-05-29T01:48:28;100244.03;;;18.06;42.86
78888;BME280;68276;49.326;8.690;2023-05-29T01:50:54;100246.59;;;18.01;43.04
78888;BME280;68276;49.326;8.690;2023-05-29T01:53:20;100243.16;;;17.94;43.22
78888;BME280;68276;49.326;8.690;2023-05-29T01:55:46;100248.16;;;17.97;43.00
78888;BME280;68276;49.326;8.690;2023-05-29T01:58:12;100254.41;;;17.97;43.09
78888;BME280;68276;49.326;8.690;2023-05-29T02:00:38;100246.97;;;17.93;43.20
78888;BME280;68276;49.326;8.690;2023-05-29T02:03:05;100249.56;;;17.88;43.21
78888;BME280;68276;49.326;8.690;2023-05-29T02:05:30;100252.75;;;17.96;43.12
78888;BME280;68276;49.326;8.690;2023-05-29T02:07:55;100258.44;;;17.95;43.29
78888;BME280;68276;49.326;8.690;2023-05-29T02:10:21;100255.72;;;17.95;42.83
78888;BME280;68276;49.326;8.690;2023-05-29T02:12:46;100248.16;;;17.97;42.93
78888;BME280;68276;49.326;8.690;2023-05-29T02:15:12;100263.97;;;18.00;42.99
78888;BME280;68276;49.326;8.690;2023-05-29T02:17:37;100261.16;;;17.95;42.96
78888;BME280;68276;49.326;8.690;2023-05-29T02:20:03;100257.34;;;17.96;42.76
78888;BME280;68276;49.326;8.690;2023-05-29T02:22:29;100265.38;;;17.91;42.86
78888;BME280;68276;49.326;8.690;2023-05-29T02:24:55;100266.09;;;17.98;42.59
78888;BME280;68276;49.326;8.690;2023-05-29T02:27:20;100272.63;;;17.97;42.72
78888;BME280;68276;49.326;8.690;2023-05-29T02:29:46;100276.25;;;17.91;42.99
78888;BME280;68276;49.326;8.690;2023-05-29T02:32:11;100273.41;;;17.86;42.96
78888;BME280;68276;49.326;8.690;2023-05-29T02:34:37;100271.28;;;17.76;43.60
78888;BME280;68276;49.326;8.690;2023-05-29T02:37:02;100279.25;;;17.60;44.69
78888;BME280;68276;49.326;8.690;2023-05-29T02:39:28;100275.03;;;17.46;45.20
78888;BME280;68276;49.326;8.690;2023-05-29T02:41:53;100288.13;;;17.37;45.23
78888;BME280;68276;49.326;8.690;2023-05-29T02:44:20;100282.66;;;17.26;45.86
78888;BME280;68276;49.326;8.690;2023-05-29T02:46:45;100284.41;;;17.20;45.84
78888;BME280;68276;49.326;8.690;2023-05-29T02:49:10;100278.47;;;17.11;46.21
78888;BME280;68276;49.326;8.690;2023-05-29T02:51:36;100280.59;;;16.91;47.69
78888;BME280;68276;49.326;8.690;2023-05-29T02:54:02;100276.25;;;16.72;48.25
78888;BME280;68276;49.326;8.690;2023-05-29T02:56:28;100285.34;;;16.60;48.75
78888;BME280;68276;49.326;8.690;2023-05-29T02:58:53;100277.16;;;16.48;49.16
78888;BME280;68276;49.326;8.690;2023-05-29T03:01:19;100282.56;;;16.42;50.17
78888;BME280;68276;49.326;8.690;2023-05-29T03:03:44;100279.19;;;16.28;51.25
78888;BME280;68276;49.326;8.690;2023-05-29T03:06:10;100281.63;;;16.12;51.89
78888;BME280;68276;49.326;8.690;2023-05-29T03:08:37;100279.94;;;15.92;53.23
78888;BME280;68276;49.326;8.690;2023-05-29T03:11:08;100287.25;;;15.61;54.99
78888;BME280;68276;49.326;8.690;2023-05-29T03:13:37;100286.13;;;15.44;56.54
78888;BME280;68276;49.326;8.690;2023-05-29T03:16:02;100288.63;;;15.39;57.44
78888;BME280;68276;49.326;8.690;2023-05-29T03:18:28;100291.56;;;15.31;59.02
78888;BME280;68276;49.326;8.690;2023-05-29T03:20:53;100287.88;;;15.19;60.99
78888;BME280;68276;49.326;8.690;2023-05-29T03:23:20;100289.19;;;15.03;63.25
78888;BME280;68276;49.326;8.690;2023-05-29T03:25:45;100286.59;;;14.83;65.55
78888;BME280;68276;49.326;8.690;2023-05-29T03:28:10;100289.97;;;14.66;67.27
78888;BME280;68276;49.326;8.690;2023-05-29T03:30:36;100296.41;;;14.65;67.57
78888;BME280;68276;49.326;8.690;2023-05-29T03:33:01;100291.69;;;14.54;68.34
78888;BME280;68276;49.326;8.690;2023-05-29T03:35:29;100293.53;;;14.60;68.20
78888;BME280;68276;49.326;8.690;2023-05-29T03:37:55;100290.81;;;14.60;68.59
78888;BME280;68276;49.326;8.690;2023-05-29T03:40:20;100298.31;;;14.51;68.87
78888;BME280;68276;49.326;8.690;2023-05-29T03:42:45;100300.00;;;14.52;69.19
78888;BME280;68276;49.326;8.690;2023-05-29T03:45:11;100300.00;;;14.46;69.69
78888;BME280;68276;49.326;8.690;2023-05-29T03:47:36;100299.38;;;14.37;69.86
78888;BME280;68276;49.326;8.690;2023-05-29T03:50:02;100303.34;;;14.41;69.65
78888;BME280;68276;49.326;8.690;2023-05-29T03:52:27;100302.31;;;14.42;69.76
78888;BME280;68276;49.326;8.690;2023-05-29T03:54:52;100310.81;;;14.46;69.91
78888;BME280;68276;49.326;8.690;2023-05-29T03:57:18;100311.84;;;14.51;70.11
78888;BME280;68276;49.326;8.690;2023-05-29T03:59:43;100311.84;;;14.51;70.29
78888;BME280;68276;49.326;8.690;2023-05-29T04:02:09;100319.34;;;14.56;69.80
78888;BME280;68276;49.326;8.690;2023-05-29T04:04:34;100320.38;;;14.55;69.88
78888;BME280;68276;49.326;8.690;2023-05-29T04:07:00;100312.69;;;14.52;70.52
78888;BME280;68276;49.326;8.690;2023-05-29T04:09:26;100327.44;;;14.56;69.71
78888;BME280;68276;49.326;8.690;2023-05-29T04:11:51;100325.97;;;14.60;69.67
78888;BME280;68276;49.326;8.690;2023-05-29T04:14:17;100335.53;;;14.62;69.76
78888;BME280;68276;49.326;8.690;2023-05-29T04:16:42;100343.47;;;14.57;70.07
78888;BME280;68276;49.326;8.690;2023-05-29T04:19:08;100341.78;;;14.56;70.23
78888;BME280;68276;49.326;8.690;2023-05-29T04:21:34;100343.88;;;14.54;70.08
78888;BME280;68276;49.326;8.690;2023-05-29T04:24:00;100348.88;;;14.57;71.10
78888;BME280;68276;49.326;8.690;2023-05-29T04:26:25;100344.69;;;14.55;70.72
78888;BME280;68276;49.326;8.690;2023-05-29T04:28:52;100355.31;;;14.50;71.87
78888;BME280;68276;49.326;8.690;2023-05-29T04:31:25;100361.34;;;14.52;71.37
78888;BME280;68276;49.326;8.690;2023-05-29T04:33:54;100369.44;;;14.58;70.41
78888;BME280;68276;49.326;8.690;2023-05-29T04:36:26;100363.59;;;14.61;70.27
78888;BME280;68276;49.326;8.690;2023-05-29T04:38:54;100373.19;;;14.57;70.17
78888;BME280;68276;49.326;8.690;2023-05-29T04:41:20;100370.91;;;14.61;70.13
78888;BME280;68276;49.326;8.690;2023-05-29T04:43:49;100376.06;;;14.69;70.67
78888;BME280;68276;49.326;8.690;2023-05-29T04:46:16;100376.28;;;14.74;70.46
78888;BME280;68276;49.326;8.690;2023-05-29T04:48:41;100374.59;;;14.79;70.63
78888;BME280;68276;49.326;8.690;2023-05-29T04:51:07;100382.91;;;14.84;70.32
78888;BME280;68276;49.326;8.690;2023-05-29T04:53:36;100386.88;;;14.88;69.18
78888;BME280;68276;49.326;8.690;2023-05-29T04:56:02;100386.66;;;14.90;68.47
78888;BME280;68276;49.326;8.690;2023-05-29T04:58:27;100390.81;;;14.93;67.55
78888;BME280;68276;49.326;8.690;2023-05-29T05:00:52;100392.66;;;14.99;67.55
78888;BME280;68276;49.326;8.690;2023-05-29T05:03:18;100400.53;;;15.07;69.06
78888;BME280;68276;49.326;8.690;2023-05-29T05:05:43;100403.06;;;15.08;69.33
78888;BME280;68276;49.326;8.690;2023-05-29T05:08:09;100407.00;;;15.06;67.47
78888;BME280;68276;49.326;8.690;2023-05-29T05:10:37;100402.44;;;15.06;67.48
78888;BME280;68276;49.326;8.690;2023-05-29T05:13:02;100398.22;;;15.10;67.59
78888;BME280;68276;49.326;8.690;2023-05-29T05:15:28;100408.47;;;14.95;68.36
78888;BME280;68276;49.326;8.690;2023-05-29T05:17:53;100409.91;;;15.11;66.40
78888;BME280;68276;49.326;8.690;2023-05-29T05:20:19;100409.25;;;15.22;66.37
78888;BME280;68276;49.326;8.690;2023-05-29T05:22:44;100409.66;;;15.25;66.21
78888;BME280;68276;49.326;8.690;2023-05-29T05:25:10;100401.28;;;15.40;65.42
78888;BME280;68276;49.326;8.690;2023-05-29T05:27:36;100406.88;;;15.45;66.06
78888;BME280;68276;49.326;8.690;2023-05-29T05:30:05;100413.53;;;15.49;67.26
78888;BME280;68276;49.326;8.690;2023-05-29T05:32:32;100406.88;;;15.45;66.72
78888;BME280;68276;49.326;8.690;2023-05-29T05:34:57;100416.44;;;15.54;65.51
78888;BME280;68276;49.326;8.690;2023-05-29T05:37:23;100405.38;;;15.55;65.59
78888;BME280;68276;49.326;8.690;2023-05-29T05:39:49;100417.84;;;15.63;65.37
78888;BME280;68276;49.326;8.690;2023-05-29T05:42:16;100411.56;;;15.69;64.52
78888;BME280;68276;49.326;8.690;2023-05-29T05:44:41;100420.06;;;15.79;64.53
78888;BME280;68276;49.326;8.690;2023-05-29T05:47:07;100423.97;;;15.83;64.64
78888;BME280;68276;49.326;8.690;2023-05-29T05:49:33;100431.44;;;15.94;64.49
78888;BME280;68276;49.326;8.690;2023-05-29T05:51:58;100431.16;;;16.02;65.10
78888;BME280;68276;49.326;8.690;2023-05-29T05:54:23;100437.53;;;16.14;66.06
78888;BME280;68276;49.326;8.690;2023-05-29T05:56:49;100441.31;;;16.13;68.11
78888;BME280;68276;49.326;8.690;2023-05-29T05:59:14;100445.34;;;16.04;66.76
78888;BME280;68276;49.326;8.690;2023-05-29T06:01:40;100442.34;;;16.19;65.75
78888;BME280;68276;49.326;8.690;2023-05-29T06:04:06;100448.88;;;16.36;64.46
78888;BME280;68276;49.326;8.690;2023-05-29T06:06:32;100449.44;;;16.44;60.54
78888;BME280;68276;49.326;8.690;2023-05-29T06:08:57;100451.50;;;16.49;58.48
78888;BME280;68276;49.326;8.690;2023-05-29T06:11:23;100453.28;;;16.61;57.11
78888;BME280;68276;49.326;8.690;2023-05-29T06:13:50;100455.06;;;16.74;56.85
78888;BME280;68276;49.326;8.690;2023-05-29T06:16:16;100449.88;;;16.90;57.15
78888;BME280;68276;49.326;8.690;2023-05-29T06:18:42;100447.22;;;17.08;55.64
78888;BME280;68276;49.326;8.690;2023-05-29T06:21:07;100446.06;;;17.16;55.19
78888;BME280;68276;49.326;8.690;2023-05-29T06:23:34;100442.84;;;17.26;55.41
78888;BME280;68276;49.326;8.690;2023-05-29T06:26:01;100447.75;;;17.35;55.31
78888;BME280;68276;49.326;8.690;2023-05-29T06:28:27;100444.59;;;17.38;55.97
78888;BME280;68276;49.326;8.690;2023-05-29T06:30:52;100445.44;;;17.57;57.06
78888;BME280;68276;49.326;8.690;2023-05-29T06:33:17;100448.25;;;17.44;58.78
78888;BME280;68276;49.326;8.690;2023-05-29T06:35:43;100447.84;;;17.65;58.40
78888;BME280;68276;49.326;8.690;2023-05-29T06:38:09;100449.94;;;17.81;56.79
78888;BME280;68276;49.326;8.690;2023-05-29T06:40:34;100445.84;;;17.90;56.56
78888;BME280;68276;49.326;8.690;2023-05-29T06:43:00;100444.09;;;17.95;56.15
78888;BME280;68276;49.326;8.690;2023-05-29T06:45:25;100449.00;;;18.16;54.75
78888;BME280;68276;49.326;8.690;2023-05-29T06:47:51;100447.44;;;18.39;53.74
78888;BME280;68276;49.326;8.690;2023-05-29T06:50:16;100446.88;;;18.48;53.01
78888;BME280;68276;49.326;8.690;2023-05-29T06:52:41;100454.47;;;18.69;53.44
78888;BME280;68276;49.326;8.690;2023-05-29T06:55:07;100452.13;;;18.84;52.57
78888;BME280;68276;49.326;8.690;2023-05-29T06:57:33;100452.25;;;19.01;51.21
78888;BME280;68276;49.326;8.690;2023-05-29T06:59:58;100457.44;;;19.14;50.68
78888;BME280;68276;49.326;8.690;2023-05-29T07:02:24;100461.13;;;19.31;49.96
78888;BME280;68276;49.326;8.690;2023-05-29T07:04:49;100459.91;;;19.50;48.10
78888;BME280;68276;49.326;8.690;2023-05-29T07:07:14;100459.78;;;19.68;47.87
78888;BME280;68276;49.326;8.690;2023-05-29T07:09:40;100467.00;;;19.63;46.35
78888;BME280;68276;49.326;8.690;2023-05-29T07:12:05;100466.22;;;19.90;45.63
78888;BME280;68276;49.326;8.690;2023-05-29T07:14:31;100455.13;;;20.08;44.63
78888;BME280;68276;49.326;8.690;2023-05-29T07:16:56;100453.28;;;20.25;43.64
78888;BME280;68276;49.326;8.690;2023-05-29T07:19:22;100468.63;;;20.43;43.27
78888;BME280;68276;49.326;8.690;2023-05-29T07:21:48;100457.06;;;20.69;42.55
78888;BME280;68276;49.326;8.690;2023-05-29T07:24:13;100457.94;;;20.91;42.08
78888;BME280;68276;49.326;8.690;2023-05-29T07:26:38;100462.53;;;20.69;41.63
78888;BME280;68276;49.326;8.690;2023-05-29T07:29:04;100468.59;;;20.76;41.75
78888;BME280;68276;49.326;8.690;2023-05-29T07:31:30;100465.06;;;20.92;41.87
78888;BME280;68276;49.326;8.690;2023-05-29T07:33:55;100476.50;;;20.73;42.24
78888;BME280;68276;49.326;8.690;2023-05-29T07:36:21;100471.44;;;20.81;41.47
78888;BME280;68276;49.326;8.690;2023-05-29T07:38:46;100472.75;;;20.95;41.82
78888;BME280;68276;49.326;8.690;2023-05-29T07:41:11;100479.41;;;21.16;41.26
78888;BME280;68276;49.326;8.690;2023-05-29T07:43:37;100480.38;;;21.10;40.99
78888;BME280;68276;49.326;8.690;2023-05-29T07:46:03;100478.50;;;21.48;41.06
78888;BME280;68276;49.326;8.690;2023-05-29T07:48:28;100483.06;;;21.43;40.39
78888;BME280;68276;49.326;8.690;2023-05-29T07:50:53;100478.38;;;21.38;40.60
78888;BME280;68276;49.326;8.690;2023-05-29T07:53:19;100486.84;;;21.58;40.27
78888;BME280;68276;49.326;8.690;2023-05-29T07:55:44;100489.56;;;21.58;40.68
78888;BME280;68276;49.326;8.690;2023-05-29T07:58:09;100492.75;;;21.50;40.91
78888;BME280;68276;49.326;8.690;2023-05-29T08:00:37;100484.16;;;21.63;40.69
78888;BME280;68276;49.326;8.690;2023-05-29T08:03:04;100477.75;;;21.75;40.85
78888;BME280;68276;49.326;8.690;2023-05-29T08:05:29;100485.06;;;21.69;40.57
78888;BME280;68276;49.326;8.690;2023-05-29T08:07:54;100496.47;;;21.83;40.90
78888;BME280;68276;49.326;8.690;2023-05-29T08:10:20;100492.97;;;21.87;40.36
78888;BME280;68276;49.326;8.690;2023-05-29T08:12:45;100497.41;;;21.93;40.45
78888;BME280;68276;49.326;8.690;2023-05-29T08:15:11;100498.25;;;21.94;39.85
78888;BME280;68276;49.326;8.690;2023-05-29T08:17:37;100491.28;;;22.08;40.34
78888;BME280;68276;49.326;8.690;2023-05-29T08:20:02;100490.38;;;22.24;39.83
78888;BME280;68276;49.326;8.690;2023-05-29T08:22:32;100485.63;;;22.41;38.96
78888;BME280;68276;49.326;8.690;2023-05-29T08:24:59;100485.34;;;22.42;39.15
78888;BME280;68276;49.326;8.690;2023-05-29T08:27:24;100486.13;;;22.59;39.00
78888;BME280;68276;49.326;8.690;2023-05-29T08:29:50;100480.34;;;22.56;38.92
78888;BME280;68276;49.326;8.690;2023-05-29T08:32:15;100484.38;;;22.80;38.94
78888;BME280;68276;49.326;8.690;2023-05-29T08:34:40;100481.03;;;22.73;38.74
78888;BME280;68276;49.326;8.690;2023-05-29T08:37:06;100474.97;;;23.03;38.13
78888;BME280;68276;49.326;8.690;2023-05-29T08:39:32;100480.22;;;23.09;38.46
78888;BME280;68276;49.326;8.690;2023-05-29T08:42:13;100479.38;;;23.09;37.72
78888;BME280;68276;49.326;8.690;2023-05-29T08:44:40;100475.44;;;22.95;38.01
78888;BME280;68276;49.326;8.690;2023-05-29T08:47:06;100472.28;;;23.08;37.60
78888;BME280;68276;49.326;8.690;2023-05-29T08:49:40;100480.69;;;23.33;36.49
78888;BME280;68276;49.326;8.690;2023-05-29T08:52:15;100479.59;;;23.34;36.53
78888;BME280;68276;49.326;8.690;2023-05-29T08:54:41;100484.13;;;23.18;36.26
78888;BME280;68276;49.326;8.690;2023-05-29T08:57:06;100474.94;;;23.39;36.89
78888;BME280;68276;49.326;8.690;2023-05-29T08:59:33;100475.53;;;23.46;36.00
78888;BME280;68276;49.326;8.690;2023-05-29T09:01:58;100471.00;;;23.67;36.33
78888;BME280;68276;49.326;8.690;2023-05-29T09:04:24;100467.91;;;23.53;36.20
78888;BME280;68276;49.326;8.690;2023-05-29T09:06:50;100473.78;;;23.77;36.15
78888;BME280;68276;49.326;8.690;2023-05-29T09:09:18;100474.06;;;23.75;35.93
78888;BME280;68276;49.326;8.690;2023-05-29T09:11:43;100470.75;;;23.73;36.39
78888;BME280;68276;49.326;8.690;2023-05-29T09:14:31;100474.66;;;23.88;35.57
78888;BME280;68276;49.326;8.690;2023-05-29T09:16:58;100471.47;;;24.16;35.46
78888;BME280;68276;49.326;8.690;2023-05-29T09:19:25;100470.03;;;23.98;35.07
78888;BME280;68276;49.326;8.690;2023-05-29T09:21:51;100463.22;;;24.16;34.55
78888;BME280;68276;49.326;8.690;2023-05-29T09:24:16;100464.91;;;24.37;33.84
78888;BME280;68276;49.326;8.690;2023-05-29T09:26:49;100467.66;;;24.47;32.95
78888;BME280;68276;49.326;8.690;2023-05-29T09:29:15;100480.31;;;24.53;33.63
78888;BME280;68276;49.326;8.690;2023-05-29T09:31:50;100468.78;;;24.61;32.88
78888;BME280;68276;49.326;8.690;2023-05-29T09:34:15;100469.91;;;24.65;32.80
78888;BME280;68276;49.326;8.690;2023-05-29T09:36:41;100472.41;;;24.92;33.36
78888;BME280;68276;49.326;8.690;2023-05-29T09:39:07;100480.06;;;24.59;32.72
78888;BME280;68276;49.326;8.690;2023-05-29T09:41:44;100482.28;;;24.67;33.11
78888;BME280;68276;49.326;8.690;2023-05-29T09:44:12;100472.09;;;24.58;32.79
78888;BME280;68276;49.326;8.690;2023-05-29T09:46:39;100472.09;;;24.58;32.50
78888;BME280;68276;49.326;8.690;2023-05-29T09:49:11;100480.03;;;24.34;32.76
78888;BME280;68276;49.326;8.690;2023-05-29T09:51:36;100472.88;;;24.43;32.27
78888;BME280;68276;49.326;8.690;2023-05-29T09:54:16;100477.28;;;24.34;33.27
78888;BME280;68276;49.326;8.690;2023-05-29T09:56:44;100479.78;;;24.46;33.14
78888;BME280;68276;49.326;8.690;2023-05-29T09:59:11;100474.00;;;24.52;32.51
78888;BME280;68276;49.326;8.690;2023-05-29T10:01:39;100470.19;;;24.68;33.16
78888;BME280;68276;49.326;8.690;2023-05-29T10:04:05;100477.88;;;24.76;32.51
78888;BME280;68276;49.326;8.690;2023-05-29T10:06:32;100464.97;;;24.57;32.65
78888;BME280;68276;49.326;8.690;2023-05-29T10:09:01;100463.28;;;24.51;32.94
78888;BME280;68276;49.326;8.690;2023-05-29T10:11:28;100470.44;;;24.67;33.28
78888;BME280;68276;49.326;8.690;2023-05-29T10:13:57;100475.97;;;24.97;33.00
78888;BME280;68276;49.326;8.690;2023-05-29T10:16:23;100473.50;;;24.85;32.81
78888;BME280;68276;49.326;8.690;2023-05-29T10:18:56;100468.81;;;25.06;32.70
78888;BME280;68276;49.326;8.690;2023-05-29T10:21:25;100460.56;;;25.01;31.90
78888;BME280;68276;49.326;8.690;2023-05-29T10:23:52;100462.25;;;25.02;32.27
78888;BME280;68276;49.326;8.690;2023-05-29T10:26:26;100463.56;;;25.20;32.03
78888;BME280;68276;49.326;8.690;2023-05-29T10:34:49;100450.88;;;25.54;31.47
78888;BME280;68276;49.326;8.690;2023-05-29T10:38:02;100446.75;;;25.46;31.95
78888;BME280;68276;49.326;8.690;2023-05-29T10:40:26;100446.38;;;25.73;31.59
78888;BME280;68276;49.326;8.690;2023-05-29T10:42:52;100448.22;;;25.87;31.55
78888;BME280;68276;49.326;8.690;2023-05-29T10:47:54;100430.28;;;26.05;30.94
78888;BME280;68276;49.326;8.690;2023-05-29T10:50:55;100435.63;;;25.76;32.03
78888;BME280;68276;49.326;8.690;2023-05-29T10:53:25;100438.72;;;26.19;32.40
78888;BME280;68276;49.326;8.690;2023-05-29T10:55:52;100444.50;;;25.58;31.83
78888;BME280;68276;49.326;8.690;2023-05-29T10:58:19;100431.00;;;25.62;31.73
78888;BME280;68276;49.326;8.690;2023-05-29T11:00:46;100432.22;;;25.94;31.31
78888;BME280;68276;49.326;8.690;2023-05-29T11:03:19;100441.00;;;26.01;29.97
78888;BME280;68276;49.326;8.690;2023-05-29T11:06:06;100428.09;;;26.46;29.05
78888;BME280;68276;49.326;8.690;2023-05-29T11:08:44;100430.97;;;26.26;28.92
78888;BME280;68276;49.326;8.690;2023-05-29T11:11:14;100439.38;;;26.00;28.78
78888;BME280;68276;49.326;8.690;2023-05-29T11:13:40;100431.06;;;26.11;29.17
78888;BME280;68276;49.326;8.690;2023-05-29T11:16:11;100434.88;;;26.53;28.91
78888;BME280;68276;49.326;8.690;2023-05-29T11:18:46;100434.38;;;26.13;29.42
78888;BME280;68276;49.326;8.690;2023-05-29T11:23:41;100425.88;;;26.43;28.66
78888;BME280;68276;49.326;8.690;2023-05-29T11:26:11;100423.75;;;26.73;28.83
78888;BME280;68276;49.326;8.690;2023-05-29T11:28:37;100419.53;;;26.81;29.10
78888;BME280;68276;49.326;8.690;2023-05-29T11:31:08;100429.00;;;26.70;28.43
78888;BME280;68276;49.326;8.690;2023-05-29T11:33:36;100421.31;;;26.62;29.57
78888;BME280;68276;49.326;8.690;2023-05-29T11:36:05;100425.88;;;26.81;29.67
78888;BME280;68276;49.326;8.690;2023-05-29T11:38:31;100429.25;;;27.26;29.36
78888;BME280;68276;49.326;8.690;2023-05-29T11:40:57;100428.22;;;26.93;28.55
78888;BME280;68276;49.326;8.690;2023-05-29T11:43:26;100429.38;;;27.16;28.28
78888;BME280;68276;49.326;8.690;2023-05-29T11:45:51;100431.97;;;26.78;28.80
78888;BME280;68276;49.326;8.690;2023-05-29T11:48:16;100431.34;;;26.86;28.21
78888;BME280;68276;49.326;8.690;2023-05-29T11:50:42;100425.81;;;26.86;28.79
78888;BME280;68276;49.326;8.690;2023-05-29T11:53:08;100420.44;;;27.00;27.70
78888;BME280;68276;49.326;8.690;2023-05-29T11:55:34;100428.97;;;27.32;28.15
78888;BME280;68276;49.326;8.690;2023-05-29T11:58:02;100432.84;;;27.26;27.52
78888;BME280;68276;49.326;8.690;2023-05-29T12:00:33;100431.84;;;27.17;28.06
78888;BME280;68276;49.326;8.690;2023-05-29T12:02:59;100435.66;;;26.97;26.64
78888;BME280;68276;49.326;8.690;2023-05-29T12:05:33;100431.91;;;27.12;26.54
78888;BME280;68276;49.326;8.690;2023-05-29T12:08:10;100419.06;;;27.26;26.89
78888;BME280;68276;49.326;8.690;2023-05-29T12:10:36;100419.28;;;27.58;26.22
78888;BME280;68276;49.326;8.690;2023-05-29T12:13:02;100421.00;;;27.73;26.77
78888;BME280;68276;49.326;8.690;2023-05-29T12:15:28;100430.19;;;27.68;26.74
78888;BME280;68276;49.326;8.690;2023-05-29T12:17:54;100418.75;;;27.98;26.09
78888;BME280;68276;49.326;8.690;2023-05-29T12:20:24;100419.47;;;27.85;26.64
78888;BME280;68276;49.326;8.690;2023-05-29T12:22:52;100421.47;;;27.80;26.65
78888;BME280;68276;49.326;8.690;2023-05-29T12:25:20;100413.44;;;28.02;25.69
78888;BME280;68276;49.326;8.690;2023-05-29T12:27:46;100421.75;;;27.60;26.16
78888;BME280;68276;49.326;8.690;2023-05-29T12:30:22;100421.31;;;27.71;26.44
78888;BME280;68276;49.326;8.690;2023-05-29T12:32:49;100413.34;;;27.88;26.07
78888;BME280;68276;49.326;8.690;2023-05-29T12:35:27;100417.22;;;27.87;25.74
78888;BME280;68276;49.326;8.690;2023-05-29T12:38:01;100423.94;;;27.81;26.66
78888;BME280;68276;49.326;8.690;2023-05-29T12:40:33;100419.34;;;28.14;25.24
78888;BME280;68276;49.326;8.690;2023-05-29T12:43:02;100417.66;;;28.18;24.63
78888;BME280;68276;49.326;8.690;2023-05-29T12:45:30;100412.44;;;27.98;25.05
78888;BME280;68276;49.326;8.690;2023-05-29T12:53:01;100411.28;;;28.36;25.13
78888;BME280;68276;49.326;8.690;2023-05-29T12:55:28;100405.03;;;28.31;26.30
78888;BME280;68276;49.326;8.690;2023-05-29T12:57:57;100407.41;;;28.37;25.27
78888;BME280;68276;49.326;8.690;2023-05-29T13:00:23;100404.94;;;28.36;26.09
78888;BME280;68276;49.326;8.690;2023-05-29T13:02:49;100406.03;;;28.72;24.33
78888;BME280;68276;49.326;8.690;2023-05-29T13:05:15;100409.75;;;28.81;24.67
78888;BME280;68276;49.326;8.690;2023-05-29T13:07:47;100409.22;;;29.24;23.89
78888;BME280;68276;49.326;8.690;2023-05-29T13:10:13;100406.16;;;29.12;24.66
78888;BME280;68276;49.326;8.690;2023-05-29T13:12:40;100405.19;;;29.03;25.17